Time;durP1;ratioP1;P1;durP2;ratioP2;P2;SDS_P1;SDS_P2;PMS_P1;PMS_P2;Temp;Humidity;BMP_temperature;BMP_pressure;BME280_temperature;BME280_humidity;BME280_pressure;Samples;Min_cycle;Max_cycle;Signal;HPM_P1;HPM_P2
2022/07/15 00:00:15;;;;;;;3.07;1.70;;;26.60;48.60;;;;;;5072659;28;20181;-82
2022/07/15 00:02:41;;;;;;;2.07;1.87;;;26.60;48.50;;;;;;5072436;28;20206;-82
2022/07/15 00:05:09;;;;;;;2.53;1.70;;;26.60;48.50;;;;;;5090478;28;20405;-82
2022/07/15 00:07:39;;;;;;;2.50;1.67;;;26.50;48.30;;;;;;5073139;28;20440;-81
2022/07/15 00:10:14;;;;;;;2.83;1.87;;;26.50;48.50;;;;;;5089105;28;20424;-82
2022/07/15 00:12:49;;;;;;;2.17;1.70;;;26.50;48.40;;;;;;5086453;28;20484;-82
2022/07/15 00:15:16;;;;;;;2.13;1.83;;;26.50;48.30;;;;;;5091228;28;20400;-81
2022/07/15 00:17:42;;;;;;;1.97;1.67;;;26.50;48.30;;;;;;5071543;28;20499;-83
2022/07/15 00:20:09;;;;;;;1.97;1.70;;;26.50;48.30;;;;;;5072175;28;20413;-82
2022/07/15 00:22:36;;;;;;;2.10;1.90;;;26.50;48.30;;;;;;5090000;28;21085;-82
2022/07/15 00:25:02;;;;;;;1.80;1.70;;;26.50;48.30;;;;;;5089897;28;20409;-82
2022/07/15 00:27:28;;;;;;;3.40;1.90;;;26.50;48.20;;;;;;5089398;28;20490;-83
2022/07/15 00:33:17;;;;;;;2.00;1.80;;;26.50;48.10;;;;;;5090441;28;20174;-83
2022/07/15 00:35:45;;;;;;;2.70;2.13;;;26.50;48.00;;;;;;5072549;28;20451;-82
2022/07/15 00:38:11;;;;;;;1.63;1.53;;;26.40;48.10;;;;;;5072674;28;20480;-82
2022/07/15 00:40:48;;;;;;;2.03;1.60;;;26.40;48.10;;;;;;5074149;28;20839;-82
2022/07/15 00:43:16;;;;;;;2.60;1.60;;;26.40;48.10;;;;;;5092110;28;20158;-82
2022/07/15 00:45:43;;;;;;;1.77;1.60;;;26.40;48.00;;;;;;5073198;28;20413;-81
2022/07/15 00:48:09;;;;;;;1.90;1.67;;;26.40;48.00;;;;;;5076301;28;20466;-82
2022/07/15 00:50:36;;;;;;;2.10;1.77;;;26.40;47.80;;;;;;5073600;28;20436;-83
2022/07/15 00:53:17;;;;;;;1.70;1.50;;;26.40;47.80;;;;;;5073838;28;20409;-82
2022/07/15 00:55:44;;;;;;;1.50;1.40;;;26.40;47.80;;;;;;5054859;28;20426;-82
2022/07/15 00:58:18;;;;;;;1.67;1.57;;;26.40;47.70;;;;;;5068188;28;20471;-82
2022/07/15 01:00:47;;;;;;;2.03;1.60;;;26.40;47.70;;;;;;5083773;28;20404;-82
2022/07/15 01:03:16;;;;;;;3.10;2.10;;;26.40;47.70;;;;;;5068494;28;20440;-82
2022/07/15 01:05:43;;;;;;;1.90;1.80;;;26.40;47.60;;;;;;5071048;28;20458;-82
2022/07/15 01:08:10;;;;;;;2.63;1.83;;;26.40;47.70;;;;;;5071040;28;20913;-82
2022/07/15 01:10:36;;;;;;;1.87;1.67;;;26.40;47.80;;;;;;5067059;28;20409;-82
2022/07/15 01:13:04;;;;;;;2.07;1.73;;;26.40;47.80;;;;;;5085206;28;20420;-82
2022/07/15 01:15:32;;;;;;;3.40;1.70;;;26.40;47.60;;;;;;5091258;28;20405;-82
2022/07/15 01:18:01;;;;;;;2.40;1.60;;;26.40;47.50;;;;;;5061397;28;20461;-82
2022/07/15 01:20:28;;;;;;;2.10;1.40;;;26.40;47.50;;;;;;5063970;28;20409;-82
2022/07/15 01:22:55;;;;;;;1.77;1.50;;;26.40;47.40;;;;;;5052383;28;20429;-82
2022/07/15 01:25:20;;;;;;;1.70;1.47;;;26.40;47.40;;;;;;5051757;28;20425;-82
2022/07/15 01:27:46;;;;;;;2.60;1.57;;;26.40;47.40;;;;;;5051352;28;20422;-82
2022/07/15 01:30:12;;;;;;;1.93;1.47;;;26.40;47.40;;;;;;5051538;28;20179;-81
2022/07/15 01:32:38;;;;;;;1.60;1.37;;;26.40;47.40;;;;;;5069211;28;20177;-81
2022/07/15 01:35:05;;;;;;;2.50;1.83;;;26.30;47.30;;;;;;5051233;28;20187;-82
2022/07/15 01:37:31;;;;;;;2.03;1.77;;;26.30;47.40;;;;;;5071264;28;20457;-82
2022/07/15 01:39:57;;;;;;;1.83;1.47;;;26.40;47.70;;;;;;5071749;28;20406;-82
2022/07/15 01:42:23;;;;;;;2.00;1.60;;;26.40;47.70;;;;;;5069759;28;20473;-82
2022/07/15 01:44:50;;;;;;;2.67;1.67;;;26.30;47.50;;;;;;5071588;28;20235;-81
2022/07/15 01:47:17;;;;;;;2.20;1.70;;;26.40;47.50;;;;;;5071790;28;20421;-81
2022/07/15 01:49:45;;;;;;;3.20;1.90;;;26.30;47.40;;;;;;5051884;28;20433;-81
2022/07/15 01:52:11;;;;;;;3.83;2.23;;;26.30;47.30;;;;;;5071789;28;20416;-81
2022/07/15 01:54:37;;;;;;;2.00;1.53;;;26.40;47.30;;;;;;5053853;28;20464;-81
2022/07/15 01:57:03;;;;;;;2.37;2.03;;;26.30;47.20;;;;;;5051633;28;20414;-81
2022/07/15 01:59:29;;;;;;;2.40;2.07;;;26.30;47.20;;;;;;5069240;28;20409;-81
2022/07/15 02:05:18;;;;;;;2.90;1.70;;;26.30;47.10;;;;;;5069379;28;20186;-81
2022/07/15 02:07:45;;;;;;;2.37;1.67;;;26.30;47.40;;;;;;5069085;28;20418;-81
2022/07/15 02:10:11;;;;;;;2.43;2.23;;;26.30;47.40;;;;;;5051944;28;20426;-82
2022/07/15 02:12:37;;;;;;;3.47;1.80;;;26.30;47.40;;;;;;5068908;28;20448;-81
2022/07/15 02:15:03;;;;;;;3.43;2.00;;;26.30;47.30;;;;;;5051319;28;20648;-82
2022/07/15 02:17:29;;;;;;;1.63;1.53;;;26.30;47.20;;;;;;5084938;28;20221;-82
2022/07/15 02:19:55;;;;;;;2.53;2.33;;;26.30;47.20;;;;;;5089339;28;20409;-82
2022/07/15 02:22:20;;;;;;;5.07;1.90;;;26.30;47.10;;;;;;5089216;28;20209;-82
2022/07/15 02:28:09;;;;;;;2.80;1.90;;;26.30;47.10;;;;;;5088396;28;20170;-82
2022/07/15 02:30:37;;;;;;;2.63;2.20;;;26.20;47.10;;;;;;5071165;28;20419;-82
2022/07/15 02:33:03;;;;;;;3.13;2.20;;;26.20;47.10;;;;;;5089021;28;20439;-82
2022/07/15 02:35:30;;;;;;;1.73;1.60;;;26.20;47.10;;;;;;5071135;28;20428;-82
2022/07/15 02:37:57;;;;;;;2.63;1.70;;;26.20;47.20;;;;;;5090435;28;21091;-82
2022/07/15 02:40:23;;;;;;;2.83;1.80;;;26.20;47.20;;;;;;5089908;28;20921;-82
2022/07/15 02:42:51;;;;;;;2.40;1.70;;;26.20;47.20;;;;;;5071787;28;20412;-82
2022/07/15 02:45:22;;;;;;;2.53;2.07;;;26.20;47.10;;;;;;5093334;28;20504;-81
2022/07/15 02:47:48;;;;;;;2.03;1.83;;;26.20;47.10;;;;;;5074497;28;20450;-82
2022/07/15 02:50:15;;;;;;;2.70;1.90;;;26.20;47.10;;;;;;5094200;28;20404;-82
2022/07/15 02:52:41;;;;;;;2.23;2.03;;;26.20;47.70;;;;;;5077160;28;20549;-82
2022/07/15 02:55:08;;;;;;;2.23;1.67;;;26.20;47.00;;;;;;5059126;28;20457;-82
2022/07/15 02:57:34;;;;;;;2.10;1.60;;;26.20;47.00;;;;;;5092115;28;20459;-82
2022/07/15 03:00:00;;;;;;;5.47;1.73;;;26.20;47.00;;;;;;5062708;28;20409;-82
2022/07/15 03:02:26;;;;;;;2.73;1.93;;;26.20;47.10;;;;;;5072670;28;20175;-83
2022/07/15 03:04:53;;;;;;;1.87;1.77;;;26.20;47.00;;;;;;5054040;28;20179;-82
2022/07/15 03:07:20;;;;;;;1.97;1.77;;;26.20;47.20;;;;;;5039000;28;20413;-82
2022/07/15 03:09:46;;;;;;;1.90;1.70;;;26.20;47.10;;;;;;5053997;28;20414;-83
2022/07/15 03:12:12;;;;;;;6.40;2.10;;;26.20;47.10;;;;;;5055065;28;20422;-83
2022/07/15 03:14:40;;;;;;;2.80;1.80;;;26.20;47.10;;;;;;5072460;28;20262;-83
2022/07/15 03:17:08;;;;;;;2.60;1.87;;;26.20;47.00;;;;;;5072028;28;20502;-82
2022/07/15 03:19:34;;;;;;;2.17;1.80;;;26.20;47.00;;;;;;5054080;28;20410;-82
2022/07/15 03:22:00;;;;;;;2.23;1.80;;;26.20;47.00;;;;;;5053736;28;20417;-82
2022/07/15 03:24:26;;;;;;;3.57;2.30;;;26.20;47.00;;;;;;5053652;28;20248;-82
2022/07/15 03:26:51;;;;;;;1.40;1.30;;;26.20;47.00;;;;;;5072283;28;20230;-82
2022/07/15 03:29:18;;;;;;;2.37;1.90;;;26.20;47.00;;;;;;5053513;28;20183;-82
2022/07/15 03:31:45;;;;;;;1.90;1.70;;;26.20;46.90;;;;;;5052825;28;20186;-82
2022/07/15 03:34:11;;;;;;;3.10;2.80;;;26.20;46.90;;;;;;5053911;28;20455;-83
2022/07/15 03:36:38;;;;;;;2.10;1.83;;;26.10;46.80;;;;;;5073121;28;20451;-82
2022/07/15 03:39:07;;;;;;;1.90;1.70;;;26.10;46.80;;;;;;5071195;28;20444;-82
2022/07/15 03:41:34;;;;;;;2.50;1.87;;;26.20;46.90;;;;;;5056758;28;20915;-82
2022/07/15 03:44:01;;;;;;;2.87;1.60;;;26.10;46.80;;;;;;5073476;28;20398;-82
2022/07/15 03:46:27;;;;;;;2.77;1.70;;;26.10;46.80;;;;;;5062480;28;20472;-82
2022/07/15 03:48:55;;;;;;;2.30;2.10;;;26.10;46.80;;;;;;5075370;28;20428;-82
2022/07/15 03:51:21;;;;;;;4.10;1.73;;;26.10;46.80;;;;;;5091771;28;20419;-82
2022/07/15 03:53:46;;;;;;;2.27;1.60;;;26.10;46.70;;;;;;5091194;28;20429;-82
2022/07/15 03:56:12;;;;;;;2.47;1.70;;;26.10;46.70;;;;;;5073153;28;20185;-82
2022/07/15 03:58:38;;;;;;;1.90;1.53;;;26.10;46.70;;;;;;5091272;28;20266;-82
2022/07/15 04:01:04;;;;;;;2.60;1.67;;;26.10;46.70;;;;;;5090371;28;20409;-82
2022/07/15 04:03:30;;;;;;;3.00;1.97;;;26.10;46.70;;;;;;5072351;28;20742;-82
2022/07/15 04:05:56;;;;;;;2.10;1.70;;;26.10;46.70;;;;;;5072962;28;20409;-82
2022/07/15 04:11:45;;;;;;;1.80;1.50;;;26.10;46.70;;;;;;5091016;28;20431;-82
2022/07/15 04:14:12;;;;;;;1.50;1.40;;;26.10;46.80;;;;;;5090725;28;20439;-82
2022/07/15 04:16:38;;;;;;;1.80;1.53;;;26.10;46.90;;;;;;5072490;28;20443;-82
2022/07/15 04:19:04;;;;;;;2.20;1.37;;;26.10;46.90;;;;;;5072624;28;20543;-82
2022/07/15 04:21:33;;;;;;;1.47;1.37;;;26.10;46.90;;;;;;5072606;28;20442;-83
2022/07/15 04:24:00;;;;;;;3.00;1.83;;;26.10;46.90;;;;;;5072853;28;20206;-82
2022/07/15 04:26:28;;;;;;;2.40;1.43;;;26.10;46.90;;;;;;5089929;28;20419;-82
2022/07/15 04:28:54;;;;;;;3.10;1.50;;;26.10;46.90;;;;;;5072414;28;20421;-83
2022/07/15 04:31:20;;;;;;;2.53;1.67;;;26.10;46.90;;;;;;5073003;28;20423;-83
2022/07/15 04:37:08;;;;;;;3.53;1.80;;;26.10;47.00;;;;;;5095233;28;20145;-82
2022/07/15 04:39:34;;;;;;;1.30;1.20;;;26.10;47.00;;;;;;5078944;28;20444;-81
2022/07/15 04:42:02;;;;;;;1.63;1.53;;;26.10;47.00;;;;;;5078814;28;20433;-82
2022/07/15 04:44:28;;;;;;;2.10;1.70;;;26.10;47.10;;;;;;5094805;28;20409;-82
2022/07/15 04:46:54;;;;;;;4.80;1.50;;;26.10;47.10;;;;;;5077684;28;20929;-80
2022/07/15 04:52:05;;;;;;;2.10;1.57;;;26.10;47.20;;;;;;5093977;28;20418;-81
2022/07/15 04:54:31;;;;;;;1.77;1.57;;;26.10;47.20;;;;;;5075276;28;20423;-82
2022/07/15 05:00:12;;;;;;;3.07;1.53;;;26.10;47.20;;;;;;5092498;28;20401;-81
2022/07/15 05:02:44;;;;;;;1.60;1.50;;;26.10;47.20;;;;;;5090537;28;20412;-82
2022/07/15 05:05:11;;;;;;;1.80;1.53;;;26.10;47.30;;;;;;5074324;28;20412;-83
2022/07/15 05:07:37;;;;;;;2.00;1.50;;;26.10;47.30;;;;;;5090267;28;20405;-81
2022/07/15 05:10:05;;;;;;;2.60;1.60;;;26.20;47.30;;;;;;5075086;28;20412;-82
2022/07/15 05:12:35;;;;;;;2.23;1.57;;;26.20;47.40;;;;;;5093136;28;20411;-83
2022/07/15 05:15:01;;;;;;;2.23;1.73;;;26.20;47.30;;;;;;5091286;28;20442;-82
2022/07/15 05:17:27;;;;;;;1.90;1.50;;;26.20;47.40;;;;;;5092357;28;20483;-82
2022/07/15 05:20:00;;;;;;;2.80;1.60;;;26.20;47.30;;;;;;5092243;28;20421;-82
2022/07/15 05:22:27;;;;;;;1.90;1.40;;;26.20;47.30;;;;;;5092970;28;20196;-82
2022/07/15 05:24:53;;;;;;;4.13;1.60;;;26.20;47.30;;;;;;5074321;28;20444;-83
2022/07/15 05:27:19;;;;;;;2.90;1.53;;;26.20;47.30;;;;;;5058984;28;20421;-83
2022/07/15 05:29:46;;;;;;;2.40;1.80;;;26.20;47.40;;;;;;5075091;28;20416;-83
2022/07/15 05:32:12;;;;;;;2.67;1.60;;;26.20;47.30;;;;;;5094759;28;20178;-83
2022/07/15 05:34:38;;;;;;;1.87;1.40;;;26.20;47.30;;;;;;5075197;28;20433;-83
2022/07/15 05:40:39;;;;;;;1.47;1.30;;;26.20;47.30;;;;;;5093798;28;20384;-83
2022/07/15 05:46:28;;;;;;;3.53;1.50;;;26.20;47.40;;;;;;5094741;28;20154;-82
2022/07/15 05:48:54;;;;;;;1.63;1.37;;;26.20;47.40;;;;;;5075670;28;20412;-82
2022/07/15 05:51:26;;;;;;;2.47;1.47;;;26.20;47.40;;;;;;5075129;28;20182;-82
2022/07/15 05:53:52;;;;;;;1.50;1.37;;;26.20;47.50;;;;;;5059299;28;20428;-82
2022/07/15 05:56:18;;;;;;;1.97;1.60;;;26.20;47.50;;;;;;5075034;28;20419;-82
2022/07/15 05:58:45;;;;;;;1.80;1.47;;;26.20;47.50;;;;;;5092268;28;20448;-82
2022/07/15 06:01:12;;;;;;;2.03;1.60;;;26.20;47.50;;;;;;5092325;28;20409;-82
2022/07/15 06:03:38;;;;;;;1.60;1.30;;;26.30;47.50;;;;;;5092514;28;20419;-82
2022/07/15 06:09:30;;;;;;;2.13;1.60;;;26.20;47.50;;;;;;5080586;28;20409;-83
2022/07/15 06:11:57;;;;;;;2.73;1.70;;;26.20;47.50;;;;;;5071536;28;20398;-83
2022/07/15 06:14:24;;;;;;;1.30;1.20;;;26.20;47.50;;;;;;5071221;28;20409;-83
2022/07/15 06:16:50;;;;;;;2.07;1.50;;;26.20;47.50;;;;;;5073255;28;20470;-83
2022/07/15 06:19:16;;;;;;;1.60;1.40;;;26.20;47.50;;;;;;5093016;28;20452;-83
2022/07/15 06:21:42;;;;;;;1.63;1.53;;;26.20;47.60;;;;;;5077889;28;20561;-83
2022/07/15 06:24:08;;;;;;;1.60;1.43;;;26.20;47.50;;;;;;5077307;28;20902;-83
2022/07/15 06:26:35;;;;;;;1.80;1.50;;;26.20;47.50;;;;;;5095649;28;20242;-84
2022/07/15 06:29:01;;;;;;;1.47;1.33;;;26.30;47.60;;;;;;5095956;28;20440;-83
2022/07/15 06:31:29;;;;;;;1.43;1.33;;;26.30;47.60;;;;;;5078172;28;20412;-81
2022/07/15 06:33:58;;;;;;;2.00;1.23;;;26.20;47.60;;;;;;5095205;28;20189;-83
2022/07/15 06:36:26;;;;;;;1.40;1.30;;;26.20;47.60;;;;;;5095127;28;20412;-83
2022/07/15 06:38:52;;;;;;;1.50;1.30;;;26.30;47.60;;;;;;5094227;28;20476;-83
2022/07/15 06:41:18;;;;;;;1.93;1.30;;;26.30;47.60;;;;;;5094683;28;20411;-82
2022/07/15 06:43:45;;;;;;;1.60;1.30;;;26.30;47.70;;;;;;5077901;28;20430;-83
2022/07/15 06:46:16;;;;;;;1.60;1.30;;;26.30;47.60;;;;;;5077824;28;20182;-82
2022/07/15 06:48:44;;;;;;;1.63;1.30;;;26.20;47.60;;;;;;5077247;28;20424;-83
2022/07/15 06:51:11;;;;;;;1.50;1.40;;;26.20;47.60;;;;;;5094748;28;20412;-83
2022/07/15 06:53:37;;;;;;;1.27;1.17;;;26.30;47.70;;;;;;5077219;28;20487;-83
2022/07/15 06:56:03;;;;;;;1.70;1.40;;;26.30;47.60;;;;;;5061913;28;20459;-82
2022/07/15 06:58:31;;;;;;;2.20;1.50;;;26.20;47.60;;;;;;5095463;28;20478;-82
2022/07/15 07:01:00;;;;;;;1.70;1.30;;;26.30;47.70;;;;;;5094935;28;20404;-82
2022/07/15 07:03:28;;;;;;;1.80;1.33;;;26.20;47.60;;;;;;5076425;28;20930;-82
2022/07/15 07:05:58;;;;;;;1.30;1.20;;;26.30;47.70;;;;;;5076827;28;20500;-84
2022/07/15 07:08:25;;;;;;;3.53;1.70;;;26.30;47.70;;;;;;5076849;28;20428;-85
2022/07/15 07:10:53;;;;;;;1.73;1.63;;;26.30;47.70;;;;;;5074096;28;20480;-87
2022/07/15 07:13:19;;;;;;;2.13;1.20;;;26.30;47.70;;;;;;5075569;28;20428;-84
2022/07/15 07:15:45;;;;;;;2.40;1.43;;;26.30;47.70;;;;;;5074573;28;20428;-85
2022/07/15 07:18:11;;;;;;;1.50;1.40;;;26.30;47.70;;;;;;5075713;28;20244;-85
2022/07/15 07:20:37;;;;;;;2.83;1.30;;;26.30;47.70;;;;;;5092212;28;20405;-87
2022/07/15 07:23:03;;;;;;;1.73;1.30;;;26.30;47.70;;;;;;5073233;28;20194;-85
2022/07/15 07:25:29;;;;;;;1.40;1.20;;;26.30;47.70;;;;;;5092354;28;20412;-87
2022/07/15 07:27:55;;;;;;;1.40;1.20;;;26.30;47.70;;;;;;5074288;28;20190;-85
2022/07/15 07:30:21;;;;;;;2.30;1.50;;;26.30;47.70;;;;;;5073625;28;20202;-84
2022/07/15 07:32:47;;;;;;;2.40;2.20;;;26.30;47.70;;;;;;5072964;28;20413;-84
2022/07/15 07:35:13;;;;;;;2.13;1.90;;;26.30;47.70;;;;;;5073965;28;20926;-83
2022/07/15 07:37:40;;;;;;;2.20;1.60;;;26.30;47.70;;;;;;5056730;28;20205;-84
2022/07/15 07:40:08;;;;;;;1.63;1.27;;;26.30;47.70;;;;;;5086259;28;20426;-84
2022/07/15 07:42:35;;;;;;;1.90;1.40;;;26.30;47.70;;;;;;5077442;28;20417;-84
2022/07/15 07:48:23;;;;;;;1.30;1.10;;;26.30;47.70;;;;;;5095239;28;20380;-85
2022/07/15 07:50:49;;;;;;;1.70;1.50;;;26.30;47.80;;;;;;5076347;28;20432;-85
2022/07/15 07:53:15;;;;;;;1.77;1.50;;;26.30;47.80;;;;;;5094710;28;20464;-85
2022/07/15 07:55:41;;;;;;;1.20;1.10;;;26.30;47.80;;;;;;5076915;28;20423;-85
2022/07/15 07:58:10;;;;;;;1.60;1.40;;;26.30;47.80;;;;;;5094171;28;20508;-84
2022/07/15 08:00:36;;;;;;;1.50;1.40;;;26.30;47.80;;;;;;5094753;28;20409;-85
2022/07/15 08:03:02;;;;;;;1.20;1.10;;;26.30;47.80;;;;;;5076826;28;20423;-85
2022/07/15 08:05:31;;;;;;;1.40;1.30;;;26.30;47.80;;;;;;5094472;28;20409;-85
2022/07/15 08:08:11;;;;;;;1.97;1.40;;;26.30;47.80;;;;;;5094087;28;20416;-85
2022/07/15 08:10:39;;;;;;;1.67;1.30;;;26.30;47.80;;;;;;5075035;28;20914;-87
2022/07/15 08:13:10;;;;;;;1.77;1.40;;;26.30;47.80;;;;;;5091066;28;20409;-87
2022/07/15 08:15:36;;;;;;;3.07;1.40;;;26.30;47.80;;;;;;5074529;28;20497;-87
2022/07/15 08:18:19;;;;;;;2.63;1.50;;;26.30;47.80;;;;;;5056594;28;20548;-86
2022/07/15 08:20:48;;;;;;;2.63;1.50;;;26.30;47.80;;;;;;5073799;28;20443;-87
2022/07/15 08:26:44;;;;;;;1.73;1.37;;;26.30;47.80;;;;;;5092539;28;20384;-88
2022/07/15 08:29:22;;;;;;;1.37;1.27;;;26.30;47.90;;;;;;5080939;28;20416;-88
2022/07/15 08:32:04;;;;;;;1.40;1.20;;;26.30;47.90;;;;;;5074947;28;20508;-90
2022/07/15 08:41:27;;;;;;;2.07;1.30;;;26.30;47.90;;;;;;5051795;28;20405;-86
2022/07/15 08:43:53;;;;;;;2.03;1.67;;;26.30;48.00;;;;;;5036246;28;20457;-86
2022/07/15 08:46:20;;;;;;;1.93;1.33;;;26.30;48.00;;;;;;5051957;28;20442;-86
2022/07/15 08:48:53;;;;;;;1.57;1.20;;;26.30;48.00;;;;;;5033844;28;20446;-87
2022/07/15 08:52:05;;;;;;;1.50;1.20;;;26.30;48.00;;;;;;5050095;28;20419;-88
2022/07/15 08:54:32;;;;;;;1.30;1.20;;;26.30;47.90;;;;;;5006265;28;21042;-86
2022/07/15 08:56:58;;;;;;;1.10;1.00;;;26.30;47.90;;;;;;5035277;28;20399;-87
2022/07/15 08:59:27;;;;;;;1.60;1.27;;;26.30;47.90;;;;;;5051544;28;20468;-87
2022/07/15 09:02:48;;;;;;;1.60;1.50;;;26.30;47.90;;;;;;5032977;28;20481;-87
2022/07/15 09:05:55;;;;;;;1.70;1.43;;;26.40;48.00;;;;;;4957682;29;20410;-85
2022/07/15 09:08:21;;;;;;;2.60;1.40;;;26.30;48.00;;;;;;4917847;29;20407;-85
2022/07/15 09:10:56;;;;;;;1.60;1.20;;;26.30;48.00;;;;;;4886003;29;20417;-85
2022/07/15 09:13:26;;;;;;;3.07;1.27;;;26.30;48.00;;;;;;4906010;29;20427;-85
2022/07/15 09:16:00;;;;;;;1.97;1.13;;;26.30;48.00;;;;;;4936820;29;20443;-85
2022/07/15 09:18:29;;;;;;;1.53;1.27;;;26.40;48.10;;;;;;4936966;29;20528;-85
2022/07/15 09:20:57;;;;;;;1.40;1.30;;;26.30;48.00;;;;;;4936769;29;20448;-85
2022/07/15 09:23:30;;;;;;;1.20;1.10;;;26.30;48.00;;;;;;4920997;29;20422;-85
2022/07/15 09:25:59;;;;;;;1.50;1.20;;;26.30;48.00;;;;;;4939593;29;20446;-85
2022/07/15 09:28:44;;;;;;;1.43;1.20;;;26.30;48.00;;;;;;4940356;29;20619;-85
2022/07/15 09:37:57;;;;;;;2.40;1.37;;;26.40;48.10;;;;;;4952421;29;20506;-89
2022/07/15 09:40:23;;;;;;;5.17;1.10;;;26.30;48.00;;;;;;5026432;28;20415;-85
2022/07/15 09:43:06;;;;;;;1.83;1.37;;;26.30;48.10;;;;;;5016172;28;20419;-85
2022/07/15 09:45:41;;;;;;;1.37;1.17;;;26.40;48.10;;;;;;5017211;28;20416;-85
2022/07/15 09:48:14;;;;;;;1.47;1.20;;;26.30;48.10;;;;;;5032883;28;20438;-84
2022/07/15 09:50:40;;;;;;;1.70;1.40;;;26.30;48.10;;;;;;5001228;28;20443;-84
2022/07/15 09:53:16;;;;;;;1.63;1.10;;;26.40;48.10;;;;;;4999827;28;20551;-85
2022/07/15 09:55:45;;;;;;;1.80;1.33;;;26.40;48.10;;;;;;5032986;28;20407;-85
2022/07/15 09:58:17;;;;;;;1.30;1.10;;;26.40;48.10;;;;;;5016309;28;20467;-85
2022/07/15 10:00:44;;;;;;;1.70;1.33;;;26.40;48.10;;;;;;5016741;28;20475;-85
2022/07/15 10:03:19;;;;;;;1.70;1.20;;;26.40;48.10;;;;;;5032919;28;20392;-85
2022/07/15 10:05:56;;;;;;;2.23;1.60;;;26.40;48.10;;;;;;5000356;28;20396;-84
2022/07/15 10:08:29;;;;;;;1.83;1.23;;;26.40;48.10;;;;;;5091347;28;20412;-85
2022/07/15 10:10:59;;;;;;;2.40;1.50;;;26.40;48.10;;;;;;5094504;28;20476;-84
2022/07/15 10:13:37;;;;;;;1.80;1.20;;;26.40;48.10;;;;;;5060221;28;20910;-85
2022/07/15 10:16:44;;;;;;;1.33;1.23;;;26.40;48.10;;;;;;5076264;28;20440;-85
2022/07/15 10:19:29;;;;;;;1.40;1.07;;;26.40;48.10;;;;;;4992660;28;20461;-86
2022/07/15 10:22:01;;;;;;;1.53;1.20;;;26.40;48.10;;;;;;4993454;28;20393;-85
2022/07/15 10:24:48;;;;;;;1.90;1.20;;;26.30;48.10;;;;;;4992979;28;20544;-85
2022/07/15 10:27:39;;;;;;;1.90;1.30;;;26.40;48.20;;;;;;4976207;28;20484;-84
2022/07/15 10:30:09;;;;;;;1.57;1.10;;;26.40;48.20;;;;;;4976709;28;20433;-85
2022/07/15 10:33:06;;;;;;;1.80;1.17;;;26.40;48.20;;;;;;4976671;28;20529;-84
2022/07/15 10:35:43;;;;;;;1.97;1.30;;;26.40;48.20;;;;;;4976941;28;20406;-84
2022/07/15 10:39:00;;;;;;;2.03;1.63;;;26.40;48.20;;;;;;4977170;28;20452;-85
2022/07/15 10:41:58;;;;;;;2.00;1.20;;;26.40;48.20;;;;;;4975552;28;20425;-84
2022/07/15 10:44:35;;;;;;;1.27;1.00;;;26.40;48.20;;;;;;4991766;28;20990;-83
2022/07/15 10:47:13;;;;;;;2.17;1.20;;;26.30;48.10;;;;;;4992610;28;20392;-85
2022/07/15 10:49:40;;;;;;;1.10;1.00;;;26.30;48.10;;;;;;5034701;28;20474;-84
2022/07/15 10:52:32;;;;;;;1.40;1.30;;;26.30;48.10;;;;;;5075299;28;20420;-84
2022/07/15 10:55:05;;;;;;;1.27;1.17;;;26.40;48.20;;;;;;5092556;28;20738;-85
2022/07/15 10:57:52;;;;;;;2.00;1.20;;;26.40;48.20;;;;;;5076544;28;20449;-85
2022/07/15 11:00:24;;;;;;;2.37;1.23;;;26.40;48.20;;;;;;5093158;28;20443;-85
2022/07/15 11:03:04;;;;;;;1.77;1.30;;;26.40;48.20;;;;;;5075759;28;20488;-85
2022/07/15 11:05:31;;;;;;;1.50;1.40;;;26.40;48.20;;;;;;5076774;28;20480;-85
2022/07/15 11:07:58;;;;;;;2.53;1.33;;;26.40;48.20;;;;;;5079846;28;20412;-84
2022/07/15 11:10:41;;;;;;;3.17;1.30;;;26.40;48.20;;;;;;5095820;28;20397;-85
2022/07/15 11:13:09;;;;;;;1.83;1.37;;;26.40;48.20;;;;;;5095404;28;20404;-85
2022/07/15 11:15:36;;;;;;;3.93;2.00;;;26.40;48.20;;;;;;5094958;28;20420;-86
2022/07/15 11:18:03;;;;;;;5.43;2.27;;;26.40;48.10;;;;;;5095109;28;20456;-85
2022/07/15 11:20:34;;;;;;;3.53;2.03;;;26.40;48.10;;;;;;5077614;28;20422;-86
2022/07/15 11:23:02;;;;;;;3.13;2.13;;;26.40;48.10;;;;;;5095873;28;20459;-86
2022/07/15 11:25:31;;;;;;;7.00;2.67;;;26.40;48.10;;;;;;5077605;28;20412;-85
2022/07/15 11:28:17;;;;;;;3.00;2.10;;;26.40;48.10;;;;;;5078116;28;20823;-85
2022/07/15 11:30:53;;;;;;;4.17;2.30;;;26.40;48.10;;;;;;5077181;28;20425;-85
2022/07/15 11:33:26;;;;;;;4.83;2.60;;;26.40;48.10;;;;;;5077361;28;20419;-85
2022/07/15 11:35:54;;;;;;;4.47;2.30;;;26.40;48.10;;;;;;5077325;28;20416;-85
2022/07/15 11:38:25;;;;;;;6.50;2.60;;;26.40;48.10;;;;;;5095533;28;20522;-85
2022/07/15 11:46:52;;;;;;;4.13;2.27;;;26.40;48.20;;;;;;5089996;28;20613;-83
2022/07/15 11:49:44;;;;;;;6.93;3.40;;;26.40;48.20;;;;;;5071709;28;20420;-84
2022/07/15 11:52:32;;;;;;;4.60;2.23;;;26.40;48.20;;;;;;5089720;28;20480;-83
2022/07/15 11:54:58;;;;;;;3.77;2.77;;;26.40;48.20;;;;;;5089224;28;20818;-83
2022/07/15 11:57:33;;;;;;;3.40;2.23;;;26.40;48.20;;;;;;5089380;28;20462;-83
2022/07/15 11:59:59;;;;;;;6.53;2.57;;;26.40;48.20;;;;;;5088925;28;20190;-83
2022/07/15 12:02:27;;;;;;;4.70;3.03;;;26.40;48.20;;;;;;5071506;28;20431;-83
2022/07/15 12:05:05;;;;;;;5.10;2.50;;;26.40;48.20;;;;;;5054788;28;20420;-83
2022/07/15 12:07:51;;;;;;;4.23;2.63;;;26.40;48.20;;;;;;5089533;28;20466;-83
2022/07/15 12:10:19;;;;;;;4.60;3.00;;;26.40;48.20;;;;;;5070757;28;20448;-84
2022/07/15 12:12:57;;;;;;;3.30;2.13;;;26.40;48.20;;;;;;5072440;28;20428;-83
2022/07/15 12:15:23;;;;;;;5.67;2.20;;;26.40;48.20;;;;;;5073030;28;20910;-83
2022/07/15 12:17:49;;;;;;;7.80;3.20;;;26.40;48.20;;;;;;5071834;28;20464;-82
2022/07/15 12:20:15;;;;;;;6.77;2.60;;;26.40;48.20;;;;;;5090070;28;20471;-83
2022/07/15 12:23:04;;;;;;;7.20;3.17;;;26.40;48.10;;;;;;5090124;28;20411;-81
2022/07/15 12:25:30;;;;;;;6.40;2.67;;;26.40;48.10;;;;;;5090282;28;20408;-83
2022/07/15 12:27:55;;;;;;;4.67;2.20;;;26.40;48.20;;;;;;5089849;28;20408;-83
2022/07/15 12:30:38;;;;;;;4.63;2.73;;;26.40;48.20;;;;;;5089351;28;20189;-85
2022/07/15 12:36:29;;;;;;;5.50;2.50;;;26.40;48.10;;;;;;5090047;28;20380;-82
2022/07/15 12:39:16;;;;;;;3.87;2.23;;;26.40;48.10;;;;;;5072324;28;20559;-83
2022/07/15 12:41:44;;;;;;;6.40;2.20;;;26.40;48.10;;;;;;5089740;28;20397;-81
2022/07/15 12:44:10;;;;;;;4.30;2.13;;;26.40;48.10;;;;;;5089950;28;20393;-82
2022/07/15 12:46:58;;;;;;;4.83;2.53;;;26.40;48.10;;;;;;5071593;28;20466;-84
2022/07/15 12:49:46;;;;;;;5.60;2.90;;;26.40;48.10;;;;;;5072049;28;20409;-82
2022/07/15 12:52:36;;;;;;;4.33;2.30;;;26.40;48.10;;;;;;5089175;28;20811;-84
2022/07/15 12:55:18;;;;;;;5.30;2.90;;;26.40;48.10;;;;;;5089325;28;20405;-82
2022/07/15 12:57:44;;;;;;;4.23;2.67;;;26.40;48.10;;;;;;5088631;28;20508;-82
2022/07/15 13:00:34;;;;;;;;;;;;;;;;;;;;;
2022/07/15 13:03:08;;;;;;;4.40;3.03;;;26.40;48.20;;;;;;5089763;28;20797;-83
2022/07/15 13:05:58;;;;;;;3.93;1.77;;;26.40;48.20;;;;;;5070994;28;20466;-83
2022/07/15 13:08:32;;;;;;;5.40;2.50;;;26.40;48.10;;;;;;5089073;28;20389;-83
2022/07/15 13:11:00;;;;;;;3.00;2.10;;;26.40;48.10;;;;;;5071994;28;20448;-83
2022/07/15 13:13:38;;;;;;;3.90;2.20;;;26.40;48.10;;;;;;5071557;28;20444;-84
2022/07/15 13:16:13;;;;;;;3.97;2.43;;;26.30;48.10;;;;;;5089314;28;20393;-83
2022/07/15 13:18:39;;;;;;;5.70;2.10;;;26.40;48.10;;;;;;5070688;28;20470;-83
2022/07/15 13:21:05;;;;;;;2.40;2.07;;;26.40;48.20;;;;;;5070986;28;20174;-83
2022/07/15 13:23:35;;;;;;;4.00;2.33;;;26.40;48.10;;;;;;5070634;28;20175;-83
2022/07/15 13:26:01;;;;;;;3.03;2.57;;;26.40;48.20;;;;;;5088350;28;20381;-83
2022/07/15 13:28:28;;;;;;;2.40;2.00;;;26.40;48.10;;;;;;5070938;28;20499;-83
2022/07/15 13:34:16;;;;;;;3.10;2.30;;;26.40;48.10;;;;;;5088613;28;20380;-84
2022/07/15 13:36:42;;;;;;;3.57;2.57;;;26.30;48.10;;;;;;5070417;28;20516;-83
2022/07/15 13:39:08;;;;;;;5.27;2.67;;;26.40;48.20;;;;;;5070451;28;20208;-81
2022/07/15 13:41:34;;;;;;;4.10;2.70;;;26.30;48.10;;;;;;5070791;28;20536;-83
2022/07/15 13:44:00;;;;;;;3.10;1.90;;;26.40;48.10;;;;;;5088532;28;20412;-84
2022/07/15 13:46:25;;;;;;;7.00;2.90;;;26.40;48.20;;;;;;5088086;28;20212;-84
2022/07/15 13:48:51;;;;;;;3.50;2.70;;;26.40;48.10;;;;;;5070639;28;20190;-84
2022/07/15 13:51:24;;;;;;;3.50;2.03;;;26.30;48.10;;;;;;5088337;28;20170;-83
2022/07/15 13:53:56;;;;;;;3.87;2.50;;;26.40;48.10;;;;;;5070251;28;20178;-83
2022/07/15 13:56:22;;;;;;;2.77;2.30;;;26.40;48.20;;;;;;5069780;28;20413;-83
2022/07/15 13:58:48;;;;;;;3.67;2.67;;;26.40;48.10;;;;;;5067881;28;20468;-83
2022/07/15 14:04:36;;;;;;;3.90;2.60;;;26.40;48.10;;;;;;5087726;28;20878;-83
2022/07/15 14:07:05;;;;;;;2.87;2.10;;;26.40;48.20;;;;;;5071296;28;20421;-83
2022/07/15 14:09:31;;;;;;;2.57;1.97;;;26.40;48.20;;;;;;5069344;28;20182;-83
2022/07/15 14:11:56;;;;;;;3.37;2.73;;;26.40;48.20;;;;;;5069600;28;20843;-83